Time;durP1;ratioP1;P1;durP2;ratioP2;P2;SDS_P1;SDS_P2;PMS_P1;PMS_P2;Temp;Humidity;BMP_temperature;BMP_pressure;BME280_temperature;BME280_humidity;BME280_pressure;Samples;Min_cycle;Max_cycle;Signal;HPM_P1;HPM_P2
2021/09/08 00:01:16;;;;;;;288.10;190.93;;;;;;;;;;5107068;28;20063;-51
2021/09/08 00:03:44;;;;;;;294.52;194.50;;;;;;;;;;5105212;28;20032;-52
2021/09/08 00:06:13;;;;;;;289.77;184.60;;;;;;;;;;5107035;28;20028;-53
2021/09/08 00:08:41;;;;;;;286.42;177.27;;;;;;;;;;5107028;28;20074;-52
2021/09/08 00:11:10;;;;;;;290.83;177.48;;;;;;;;;;5106228;28;20156;-52
2021/09/08 00:13:38;;;;;;;288.55;182.55;;;;;;;;;;5107108;28;20047;-52
2021/09/08 00:16:06;;;;;;;284.23;172.77;;;;;;;;;;5104292;28;20036;-48
2021/09/08 00:18:35;;;;;;;273.90;159.90;;;;;;;;;;5103620;28;20035;-51
2021/09/08 00:21:03;;;;;;;285.13;177.20;;;;;;;;;;5104833;28;20035;-52
2021/09/08 00:23:31;;;;;;;280.40;170.60;;;;;;;;;;5104361;28;20037;-52
2021/09/08 00:26:00;;;;;;;279.33;177.57;;;;;;;;;;5100567;28;20514;-48
2021/09/08 00:28:34;;;;;;;287.30;188.27;;;;;;;;;;5105124;28;20422;-52
2021/09/08 00:31:02;;;;;;;279.05;179.00;;;;;;;;;;5104182;28;20056;-47
2021/09/08 00:33:32;;;;;;;276.02;178.90;;;;;;;;;;5106431;28;20031;-50
2021/09/08 00:36:01;;;;;;;279.98;180.73;;;;;;;;;;5104789;28;20396;-47
2021/09/08 00:38:31;;;;;;;287.12;185.23;;;;;;;;;;5106980;28;20108;-51
2021/09/08 00:41:00;;;;;;;276.88;178.18;;;;;;;;;;5106302;28;20417;-51
2021/09/08 00:43:28;;;;;;;279.35;178.75;;;;;;;;;;5109307;28;20030;-48
2021/09/08 00:45:57;;;;;;;278.40;180.77;;;;;;;;;;5109816;28;20050;-50
2021/09/08 00:48:26;;;;;;;277.65;176.60;;;;;;;;;;5108040;28;20008;-49
2021/09/08 00:50:56;;;;;;;273.70;172.55;;;;;;;;;;5110379;28;20032;-50
2021/09/08 00:53:25;;;;;;;280.33;176.57;;;;;;;;;;5109034;28;20013;-49
2021/09/08 00:55:55;;;;;;;284.10;184.20;;;;;;;;;;5110656;28;20040;-52
2021/09/08 00:58:27;;;;;;;253.68;161.20;;;;;;;;;;5110225;28;20047;-50
2021/09/08 01:00:56;;;;;;;257.30;163.37;;;;;;;;;;5111012;28;20024;-50
2021/09/08 01:03:26;;;;;;;270.75;176.00;;;;;;;;;;5110687;28;20334;-50
2021/09/08 01:05:54;;;;;;;257.15;162.32;;;;;;;;;;5108857;28;20363;-50
2021/09/08 01:08:24;;;;;;;244.40;154.60;;;;;;;;;;5108399;28;20024;-51
2021/09/08 01:10:53;;;;;;;259.48;170.75;;;;;;;;;;5109622;28;20664;-49
2021/09/08 01:13:22;;;;;;;263.33;171.57;;;;;;;;;;5108819;28;20032;-50
2021/09/08 01:16:05;;;;;;;269.83;177.02;;;;;;;;;;5108736;28;20063;-50
2021/09/08 01:18:33;;;;;;;270.98;177.52;;;;;;;;;;5109360;28;20016;-51
2021/09/08 01:21:02;;;;;;;264.65;174.57;;;;;;;;;;5111265;28;20019;-50
2021/09/08 01:23:31;;;;;;;263.73;171.93;;;;;;;;;;5110278;28;20081;-48
2021/09/08 01:26:03;;;;;;;260.27;169.20;;;;;;;;;;5110316;28;20032;-48
2021/09/08 01:28:31;;;;;;;270.10;171.40;;;;;;;;;;5108870;28;20041;-50
2021/09/08 01:31:00;;;;;;;268.37;175.25;;;;;;;;;;5110377;28;20024;-48
2021/09/08 01:33:29;;;;;;;269.73;176.30;;;;;;;;;;5110413;28;20020;-50
2021/09/08 01:35:57;;;;;;;270.45;176.05;;;;;;;;;;5110578;28;20431;-48
2021/09/08 01:38:25;;;;;;;263.12;169.60;;;;;;;;;;5109435;28;20024;-51
2021/09/08 01:40:54;;;;;;;249.93;154.35;;;;;;;;;;5108255;28;20034;-48
2021/09/08 01:43:23;;;;;;;247.70;152.90;;;;;;;;;;5109107;28;20043;-51
2021/09/08 01:45:52;;;;;;;255.45;164.18;;;;;;;;;;5108618;28;20764;-48
2021/09/08 01:48:21;;;;;;;249.00;164.90;;;;;;;;;;5109725;28;20040;-49
2021/09/08 01:50:49;;;;;;;250.75;164.75;;;;;;;;;;5109366;28;20020;-51
2021/09/08 01:53:18;;;;;;;255.07;170.65;;;;;;;;;;5107478;28;20044;-49
2021/09/08 01:55:47;;;;;;;250.62;158.77;;;;;;;;;;5108972;28;20031;-49
2021/09/08 01:58:16;;;;;;;250.00;159.85;;;;;;;;;;5109020;28;20025;-49
2021/09/08 02:00:44;;;;;;;257.45;173.07;;;;;;;;;;5107722;28;20028;-48
2021/09/08 02:03:13;;;;;;;259.85;178.23;;;;;;;;;;5108438;28;20032;-50
2021/09/08 02:05:41;;;;;;;262.60;171.02;;;;;;;;;;5105185;28;20075;-50
2021/09/08 02:08:09;;;;;;;267.08;170.10;;;;;;;;;;5106280;28;20036;-50
2021/09/08 02:10:38;;;;;;;263.30;169.35;;;;;;;;;;5109287;28;20064;-51
2021/09/08 02:13:07;;;;;;;251.75;162.73;;;;;;;;;;5108710;28;20467;-50
2021/09/08 02:15:35;;;;;;;259.40;166.88;;;;;;;;;;5107707;28;20020;-50
2021/09/08 02:18:04;;;;;;;262.90;166.55;;;;;;;;;;5108940;28;20029;-48
2021/09/08 02:20:32;;;;;;;268.52;175.77;;;;;;;;;;5109097;28;20357;-51
2021/09/08 02:23:01;;;;;;;267.37;171.87;;;;;;;;;;5108615;28;20043;-52
2021/09/08 02:25:29;;;;;;;270.12;177.85;;;;;;;;;;5109051;28;20033;-51
2021/09/08 02:27:57;;;;;;;271.13;177.80;;;;;;;;;;5107339;28;20063;-51
2021/09/08 02:30:26;;;;;;;272.05;180.77;;;;;;;;;;5106908;28;20039;-48
2021/09/08 02:32:54;;;;;;;262.70;176.40;;;;;;;;;;5106526;28;20068;-50
2021/09/08 02:35:22;;;;;;;267.05;179.00;;;;;;;;;;5109011;28;20036;-51
2021/09/08 02:37:51;;;;;;;271.85;178.82;;;;;;;;;;5108111;28;20531;-50
2021/09/08 02:40:19;;;;;;;267.10;177.62;;;;;;;;;;5109122;28;20092;-48
2021/09/08 02:42:47;;;;;;;263.30;172.65;;;;;;;;;;5108663;28;20019;-50
2021/09/08 02:45:16;;;;;;;260.90;167.65;;;;;;;;;;5107454;28;20369;-51
2021/09/08 02:47:44;;;;;;;261.23;174.05;;;;;;;;;;5106728;28;20032;-51
2021/09/08 02:50:12;;;;;;;261.08;172.77;;;;;;;;;;5109156;28;20083;-48
2021/09/08 02:52:40;;;;;;;265.48;180.20;;;;;;;;;;5108405;28;20059;-48
2021/09/08 02:55:09;;;;;;;269.58;180.30;;;;;;;;;;5106641;28;20376;-49
2021/09/08 02:57:38;;;;;;;278.10;189.77;;;;;;;;;;5107834;28;20020;-49
2021/09/08 03:00:06;;;;;;;267.95;180.32;;;;;;;;;;5107542;28;20665;-48
2021/09/08 03:02:35;;;;;;;269.23;177.07;;;;;;;;;;5109616;28;20068;-48
2021/09/08 03:05:04;;;;;;;267.40;178.75;;;;;;;;;;5108758;28;20556;-49
2021/09/08 03:07:33;;;;;;;264.80;177.43;;;;;;;;;;5106765;28;20028;-51
2021/09/08 03:10:01;;;;;;;263.87;176.57;;;;;;;;;;5108690;28;20046;-48
2021/09/08 03:12:29;;;;;;;270.08;177.43;;;;;;;;;;5108835;28;20031;-50
2021/09/08 03:14:57;;;;;;;265.52;173.70;;;;;;;;;;5108198;28;20039;-51
2021/09/08 03:17:26;;;;;;;269.80;173.35;;;;;;;;;;5108809;28;20028;-51
2021/09/08 03:19:55;;;;;;;266.52;170.98;;;;;;;;;;5108815;28;20409;-50
2021/09/08 03:22:23;;;;;;;263.02;165.77;;;;;;;;;;5108520;28;20028;-49
2021/09/08 03:24:52;;;;;;;269.52;167.70;;;;;;;;;;5107085;28;20064;-48
2021/09/08 03:27:20;;;;;;;286.20;186.30;;;;;;;;;;5107253;28;20443;-51
2021/09/08 03:29:48;;;;;;;275.42;183.85;;;;;;;;;;5106940;28;20477;-51
2021/09/08 03:32:17;;;;;;;274.15;173.98;;;;;;;;;;5108374;28;20750;-52
2021/09/08 03:34:45;;;;;;;264.38;165.37;;;;;;;;;;5107154;28;20072;-50
2021/09/08 03:37:13;;;;;;;257.25;162.75;;;;;;;;;;5108597;28;20024;-50
2021/09/08 03:39:41;;;;;;;261.08;168.85;;;;;;;;;;5109533;28;20047;-48
2021/09/08 03:42:10;;;;;;;267.80;177.25;;;;;;;;;;5106901;28;20059;-50
2021/09/08 03:44:38;;;;;;;257.90;173.50;;;;;;;;;;5107095;28;20190;-49
2021/09/08 03:47:06;;;;;;;259.40;169.93;;;;;;;;;;5108625;28;20029;-50
2021/09/08 03:49:36;;;;;;;259.15;174.68;;;;;;;;;;5108960;28;20375;-50
2021/09/08 03:52:04;;;;;;;254.02;169.57;;;;;;;;;;5108288;28;20079;-51
2021/09/08 03:54:34;;;;;;;250.48;165.80;;;;;;;;;;5108467;28;20042;-48
2021/09/08 03:57:03;;;;;;;255.87;166.15;;;;;;;;;;5105966;28;20086;-50
2021/09/08 03:59:31;;;;;;;256.48;162.55;;;;;;;;;;5108502;28;20484;-50
2021/09/08 04:02:00;;;;;;;264.95;169.65;;;;;;;;;;5106709;28;20655;-51
2021/09/08 04:04:30;;;;;;;274.70;181.60;;;;;;;;;;5109017;28;20072;-53
2021/09/08 04:07:00;;;;;;;285.52;188.00;;;;;;;;;;5106735;28;20013;-49
2021/09/08 04:09:32;;;;;;;261.77;151.65;;;;;;;;;;5108768;28;20032;-51
2021/09/08 04:12:00;;;;;;;262.60;153.38;;;;;;;;;;5107678;28;20448;-49
2021/09/08 04:14:31;;;;;;;269.33;153.70;;;;;;;;;;5106487;28;20025;-52
2021/09/08 04:16:59;;;;;;;262.83;149.20;;;;;;;;;;5107984;28;20664;-50
2021/09/08 04:19:27;;;;;;;268.75;153.70;;;;;;;;;;5108792;28;20036;-49
2021/09/08 04:21:56;;;;;;;268.60;151.02;;;;;;;;;;5107168;28;20016;-51
2021/09/08 04:24:24;;;;;;;261.87;153.90;;;;;;;;;;5107987;28;20032;-51
2021/09/08 04:26:53;;;;;;;270.23;161.05;;;;;;;;;;5109904;28;20535;-50
2021/09/08 04:29:21;;;;;;;267.80;161.93;;;;;;;;;;5107311;28;20035;-50
2021/09/08 04:31:50;;;;;;;270.50;158.75;;;;;;;;;;5106704;28;20028;-51
2021/09/08 04:34:18;;;;;;;270.12;159.52;;;;;;;;;;5108653;28;20035;-51
2021/09/08 04:36:46;;;;;;;278.92;160.82;;;;;;;;;;5109081;28;20638;-48
2021/09/08 04:39:15;;;;;;;282.83;166.27;;;;;;;;;;5107711;28;20035;-50
2021/09/08 04:41:43;;;;;;;272.45;158.95;;;;;;;;;;5107399;28;20055;-51
2021/09/08 04:44:11;;;;;;;274.83;157.90;;;;;;;;;;5108244;28;20020;-49
2021/09/08 04:46:39;;;;;;;269.33;156.57;;;;;;;;;;5107529;28;20687;-49
2021/09/08 04:49:08;;;;;;;273.50;162.80;;;;;;;;;;5106412;28;20393;-51
2021/09/08 04:51:36;;;;;;;275.62;161.80;;;;;;;;;;5108094;28;20012;-49
2021/09/08 04:54:04;;;;;;;278.67;162.52;;;;;;;;;;5108465;28;20029;-50
2021/09/08 04:56:32;;;;;;;285.40;162.68;;;;;;;;;;5106754;28;20067;-51
2021/09/08 04:59:01;;;;;;;285.98;171.05;;;;;;;;;;5108075;28;20040;-49
2021/09/08 05:01:29;;;;;;;270.35;162.85;;;;;;;;;;5108351;28;20028;-50
2021/09/08 05:03:58;;;;;;;259.15;165.05;;;;;;;;;;5106650;28;20024;-51
2021/09/08 05:06:26;;;;;;;276.60;181.23;;;;;;;;;;5106945;28;20417;-50
2021/09/08 05:08:55;;;;;;;259.27;157.23;;;;;;;;;;5107468;28;20032;-51
2021/09/08 05:11:23;;;;;;;263.15;165.27;;;;;;;;;;5107629;28;20056;-51
2021/09/08 05:13:52;;;;;;;256.90;155.30;;;;;;;;;;5105944;28;20026;-51
2021/09/08 05:16:20;;;;;;;268.90;178.20;;;;;;;;;;5106993;28;20036;-51
2021/09/08 05:18:48;;;;;;;252.13;157.32;;;;;;;;;;5108322;28;20031;-50
2021/09/08 05:21:17;;;;;;;251.30;162.02;;;;;;;;;;5107721;28;20059;-50
2021/09/08 05:23:45;;;;;;;250.50;150.90;;;;;;;;;;5106918;28;20039;-51
2021/09/08 05:26:13;;;;;;;273.20;175.65;;;;;;;;;;5108036;28;20089;-50
2021/09/08 05:28:41;;;;;;;270.20;171.48;;;;;;;;;;5109782;28;20024;-51
2021/09/08 05:31:10;;;;;;;271.85;174.80;;;;;;;;;;5107381;28;20033;-51
2021/09/08 05:33:38;;;;;;;259.40;170.38;;;;;;;;;;5109213;28;20056;-51
2021/09/08 05:36:06;;;;;;;236.00;148.05;;;;;;;;;;5110077;28;20376;-51
2021/09/08 05:38:35;;;;;;;231.55;147.77;;;;;;;;;;5111084;28;20064;-50
2021/09/08 05:41:05;;;;;;;237.88;149.32;;;;;;;;;;5108945;28;20059;-51
2021/09/08 05:43:33;;;;;;;241.12;153.62;;;;;;;;;;5109463;28;20066;-51
2021/09/08 05:46:02;;;;;;;237.48;158.32;;;;;;;;;;5109072;28;20039;-50
2021/09/08 05:48:33;;;;;;;243.70;162.55;;;;;;;;;;5108600;28;20026;-51
2021/09/08 05:51:02;;;;;;;239.12;158.50;;;;;;;;;;5110702;28;20024;-51
2021/09/08 05:53:30;;;;;;;229.13;157.12;;;;;;;;;;5110880;28;20532;-50
2021/09/08 05:55:58;;;;;;;208.60;129.30;;;;;;;;;;5110293;28;20132;-52
2021/09/08 05:58:26;;;;;;;228.05;146.18;;;;;;;;;;5111093;28;20028;-50
2021/09/08 06:00:55;;;;;;;234.25;163.37;;;;;;;;;;5110127;28;20024;-53
2021/09/08 06:03:24;;;;;;;243.85;167.48;;;;;;;;;;5110665;28;20060;-54
2021/09/08 06:05:52;;;;;;;276.10;197.07;;;;;;;;;;5110822;28;20062;-54
2021/09/08 06:08:20;;;;;;;260.60;179.05;;;;;;;;;;5111030;28;20051;-54
2021/09/08 06:10:50;;;;;;;261.00;175.95;;;;;;;;;;5110588;28;20043;-54
2021/09/08 06:13:18;;;;;;;243.18;158.55;;;;;;;;;;5110588;28;20096;-54
2021/09/08 06:15:46;;;;;;;249.10;171.98;;;;;;;;;;5109389;28;20064;-54
2021/09/08 06:18:15;;;;;;;247.68;165.55;;;;;;;;;;5109772;28;20033;-54
2021/09/08 06:20:43;;;;;;;255.80;178.48;;;;;;;;;;5110698;28;20059;-54
2021/09/08 06:23:16;;;;;;;262.08;168.48;;;;;;;;;;5110985;28;20031;-54
2021/09/08 06:25:44;;;;;;;257.62;168.15;;;;;;;;;;5108436;28;20052;-54
2021/09/08 06:28:12;;;;;;;263.10;165.18;;;;;;;;;;5110348;28;20028;-54
2021/09/08 06:30:41;;;;;;;261.85;171.85;;;;;;;;;;5110303;28;20032;-55
2021/09/08 06:33:09;;;;;;;247.27;162.50;;;;;;;;;;5109883;28;20476;-54
2021/09/08 06:35:37;;;;;;;237.82;151.12;;;;;;;;;;5091820;28;20031;-54
2021/09/08 06:38:06;;;;;;;258.35;155.23;;;;;;;;;;5108118;28;20048;-54
2021/09/08 06:40:34;;;;;;;238.15;148.25;;;;;;;;;;5109894;28;20338;-54
2021/09/08 06:43:02;;;;;;;262.63;167.75;;;;;;;;;;5110632;28;20024;-54
2021/09/08 06:45:31;;;;;;;246.93;152.82;;;;;;;;;;5109252;28;20079;-54
2021/09/08 06:47:59;;;;;;;238.90;153.00;;;;;;;;;;5108324;28;20028;-54
2021/09/08 06:50:28;;;;;;;251.27;161.48;;;;;;;;;;5109390;28;20012;-54
2021/09/08 06:52:57;;;;;;;246.48;156.85;;;;;;;;;;5110463;28;20044;-54
2021/09/08 06:55:25;;;;;;;248.18;158.48;;;;;;;;;;5110457;28;20024;-54
2021/09/08 06:57:53;;;;;;;338.00;214.05;;;;;;;;;;5108577;28;20099;-54
2021/09/08 07:00:22;;;;;;;338.33;212.25;;;;;;;;;;5109345;28;20078;-54
2021/09/08 07:02:50;;;;;;;312.85;189.85;;;;;;;;;;5109996;28;20020;-54
2021/09/08 07:05:21;;;;;;;313.70;190.38;;;;;;;;;;5109346;28;20112;-54
2021/09/08 07:07:49;;;;;;;329.52;194.93;;;;;;;;;;5110515;28;20012;-54
2021/09/08 07:10:18;;;;;;;397.40;237.15;;;;;;;;;;5110730;28;20072;-54
2021/09/08 07:12:46;;;;;;;399.27;237.38;;;;;;;;;;5108142;28;20047;-54
2021/09/08 07:15:14;;;;;;;401.98;238.85;;;;;;;;;;5110534;28;20756;-54
2021/09/08 07:17:43;;;;;;;409.90;243.32;;;;;;;;;;5110476;28;20020;-55
2021/09/08 07:20:11;;;;;;;412.20;242.95;;;;;;;;;;5110263;28;20024;-54
2021/09/08 07:22:40;;;;;;;365.83;226.35;;;;;;;;;;5109702;28;20021;-54
2021/09/08 07:25:08;;;;;;;373.40;227.93;;;;;;;;;;5110048;28;20035;-54
2021/09/08 07:27:37;;;;;;;382.55;237.98;;;;;;;;;;5108141;28;20016;-55
2021/09/08 07:30:06;;;;;;;407.92;253.75;;;;;;;;;;5109682;28;20379;-55
2021/09/08 07:32:34;;;;;;;412.10;262.95;;;;;;;;;;5109361;28;20028;-55
2021/09/08 07:35:02;;;;;;;411.92;261.65;;;;;;;;;;5106087;28;20038;-55
2021/09/08 07:37:33;;;;;;;405.85;255.12;;;;;;;;;;5109209;28;20027;-55
2021/09/08 07:40:01;;;;;;;397.88;262.48;;;;;;;;;;5109961;28;20072;-55
2021/09/08 07:42:30;;;;;;;392.60;239.20;;;;;;;;;;5108383;28;20034;-55
2021/09/08 07:44:59;;;;;;;400.45;262.67;;;;;;;;;;5110115;28;20032;-54
2021/09/08 07:47:27;;;;;;;415.48;270.63;;;;;;;;;;5109050;28;20044;-55
2021/09/08 07:49:55;;;;;;;471.35;303.88;;;;;;;;;;5110418;28;20025;-55
2021/09/08 07:52:24;;;;;;;495.75;314.35;;;;;;;;;;5109975;28;20156;-55
2021/09/08 07:54:52;;;;;;;506.02;316.40;;;;;;;;;;5108160;28;20583;-55
2021/09/08 07:57:20;;;;;;;506.92;323.70;;;;;;;;;;5109714;28;20023;-55
2021/09/08 07:59:49;;;;;;;516.45;333.17;;;;;;;;;;5110250;28;20028;-55
2021/09/08 08:02:17;;;;;;;458.60;313.00;;;;;;;;;;5109917;28;20054;-55
2021/09/08 08:04:46;;;;;;;466.30;314.98;;;;;;;;;;5110348;28;20440;-55
2021/09/08 08:07:14;;;;;;;436.55;306.92;;;;;;;;;;5110234;28;20445;-55
2021/09/08 08:09:43;;;;;;;391.25;284.08;;;;;;;;;;5110393;28;20016;-55
2021/09/08 08:12:11;;;;;;;26.48;23.90;;;;;;;;;;5109663;28;20028;-55
2021/09/08 08:14:39;;;;;;;4.35;0.70;;;;;;;;;;5110074;28;20052;-55
2021/09/08 08:17:08;;;;;;;7.30;1.08;;;;;;;;;;5107824;28;20040;-55
2021/09/08 08:19:36;;;;;;;4.10;0.82;;;;;;;;;;5110031;28;20027;-55
2021/09/08 08:22:05;;;;;;;5.80;1.00;;;;;;;;;;5108319;28;20035;-55
2021/09/08 08:24:33;;;;;;;5.70;1.05;;;;;;;;;;5109840;28;20020;-55
2021/09/08 08:27:01;;;;;;;6.07;1.33;;;;;;;;;;5109003;28;20044;-55
2021/09/08 08:29:29;;;;;;;8.68;1.20;;;;;;;;;;5109527;28;20020;-55
2021/09/08 08:31:58;;;;;;;6.32;0.93;;;;;;;;;;5109816;28;20024;-55
2021/09/08 08:34:26;;;;;;;6.12;1.08;;;;;;;;;;5109779;28;20020;-55
2021/09/08 08:36:55;;;;;;;7.15;1.10;;;;;;;;;;5109485;28;20020;-55
2021/09/08 08:39:23;;;;;;;3.78;1.12;;;;;;;;;;5110083;28;20016;-55
2021/09/08 08:41:51;;;;;;;4.50;1.02;;;;;;;;;;5108812;28;20029;-55
2021/09/08 08:44:22;;;;;;;4.25;0.75;;;;;;;;;;5109747;28;20024;-55
2021/09/08 08:46:51;;;;;;;3.90;0.90;;;;;;;;;;5108853;28;20058;-55
2021/09/08 08:49:20;;;;;;;5.75;1.08;;;;;;;;;;5108485;28;20469;-55
2021/09/08 08:51:49;;;;;;;4.97;0.80;;;;;;;;;;5109748;28;20039;-55
2021/09/08 08:54:18;;;;;;;3.83;1.05;;;;;;;;;;5108404;28;20017;-55
2021/09/08 08:56:47;;;;;;;4.95;0.95;;;;;;;;;;5108003;28;20032;-55
2021/09/08 08:59:15;;;;;;;4.87;1.10;;;;;;;;;;5108469;28;20028;-55
2021/09/08 09:01:43;;;;;;;4.32;0.90;;;;;;;;;;5109550;28;20024;-56
2021/09/08 09:04:17;;;;;;;3.83;0.85;;;;;;;;;;5110875;28;20049;-55
2021/09/08 09:06:49;;;;;;;4.03;0.88;;;;;;;;;;5109043;28;20008;-55
2021/09/08 09:09:19;;;;;;;5.80;1.02;;;;;;;;;;5110380;28;20020;-55
2021/09/08 09:11:49;;;;;;;5.20;1.00;;;;;;;;;;5110907;28;20071;-55
2021/09/08 09:14:18;;;;;;;3.37;0.88;;;;;;;;;;5111384;28;20015;-55
2021/09/08 09:16:46;;;;;;;9.52;1.40;;;;;;;;;;5111831;28;20008;-55
2021/09/08 09:19:15;;;;;;;3.90;1.12;;;;;;;;;;5110552;28;20024;-56
2021/09/08 09:21:43;;;;;;;2.62;0.60;;;;;;;;;;5109892;28;20323;-56
2021/09/08 09:24:12;;;;;;;3.10;1.00;;;;;;;;;;5109200;28;20654;-56
2021/09/08 09:26:42;;;;;;;4.85;0.98;;;;;;;;;;5110985;28;20012;-55
2021/09/08 09:29:16;;;;;;;4.37;1.10;;;;;;;;;;5111785;28;20628;-55
2021/09/08 09:31:58;;;;;;;2.85;1.00;;;;;;;;;;5109965;28;20492;-56
2021/09/08 09:34:31;;;;;;;3.47;1.00;;;;;;;;;;5108427;28;20405;-55
2021/09/08 09:37:00;;;;;;;3.80;1.05;;;;;;;;;;5107653;28;20016;-56
2021/09/08 09:39:33;;;;;;;4.15;1.20;;;;;;;;;;5110588;28;20028;-56
2021/09/08 09:42:02;;;;;;;2.37;0.80;;;;;;;;;;5110678;28;20030;-56
2021/09/08 09:44:34;;;;;;;6.15;0.98;;;;;;;;;;5110028;28;20071;-56
2021/09/08 09:47:03;;;;;;;6.47;1.08;;;;;;;;;;5110267;28;20072;-56
2021/09/08 09:49:34;;;;;;;3.83;0.90;;;;;;;;;;5111411;28;20072;-56
2021/09/08 09:52:06;;;;;;;3.67;0.95;;;;;;;;;;5110177;28;20025;-56
2021/09/08 09:54:36;;;;;;;3.50;0.93;;;;;;;;;;5108791;28;20059;-56
2021/09/08 09:57:04;;;;;;;5.00;0.93;;;;;;;;;;5110562;28;20061;-56
2021/09/08 09:59:33;;;;;;;2.72;0.77;;;;;;;;;;5110567;28;20048;-56
2021/09/08 10:02:01;;;;;;;3.28;0.90;;;;;;;;;;5110539;28;20055;-56
2021/09/08 10:04:30;;;;;;;8.05;1.00;;;;;;;;;;5108868;28;20028;-56
2021/09/08 10:06:58;;;;;;;4.10;1.00;;;;;;;;;;5108430;28;20023;-56
2021/09/08 10:09:27;;;;;;;3.90;1.20;;;;;;;;;;5110631;28;20655;-56
2021/09/08 10:11:56;;;;;;;3.50;1.00;;;;;;;;;;5108527;28;20465;-56
2021/09/08 10:14:26;;;;;;;4.20;1.00;;;;;;;;;;5109181;28;20527;-56
2021/09/08 10:16:54;;;;;;;7.00;1.87;;;;;;;;;;5110166;28;20114;-56
2021/09/08 10:19:26;;;;;;;8.18;0.90;;;;;;;;;;5109139;28;20029;-56
2021/09/08 10:22:04;;;;;;;3.03;0.90;;;;;;;;;;5111027;28;20039;-56
2021/09/08 10:24:33;;;;;;;3.60;0.80;;;;;;;;;;5110598;28;20036;-56
2021/09/08 10:27:02;;;;;;;5.72;1.05;;;;;;;;;;5108784;28;20032;-56
2021/09/08 10:29:30;;;;;;;6.07;0.90;;;;;;;;;;5108796;28;20020;-56
2021/09/08 10:31:59;;;;;;;7.35;1.10;;;;;;;;;;5109297;28;20072;-56
2021/09/08 10:34:27;;;;;;;5.62;0.75;;;;;;;;;;5108749;28;20067;-56
2021/09/08 10:36:57;;;;;;;4.50;0.90;;;;;;;;;;5106812;28;20095;-56
2021/09/08 10:39:27;;;;;;;4.07;1.05;;;;;;;;;;5108362;28;20039;-56
2021/09/08 10:41:55;;;;;;;4.20;1.00;;;;;;;;;;5109461;28;20408;-56
2021/09/08 10:44:52;;;;;;;4.62;1.02;;;;;;;;;;5108422;28;20024;-56
2021/09/08 10:47:37;;;;;;;8.27;1.27;;;;;;;;;;5100881;28;20040;-56
2021/09/08 10:50:06;;;;;;;4.55;1.25;;;;;;;;;;5107886;28;20050;-56
2021/09/08 10:52:35;;;;;;;6.70;0.80;;;;;;;;;;5110473;28;20070;-56
2021/09/08 10:55:11;;;;;;;5.97;1.10;;;;;;;;;;5109393;28;20055;-56
2021/09/08 10:57:43;;;;;;;3.97;0.80;;;;;;;;;;5110271;28;20035;-56
2021/09/08 11:00:12;;;;;;;5.95;1.05;;;;;;;;;;5108379;28;20059;-56
2021/09/08 11:02:44;;;;;;;9.50;1.12;;;;;;;;;;5110559;28;20036;-56
2021/09/08 11:05:13;;;;;;;5.90;0.98;;;;;;;;;;5108731;28;20068;-55
2021/09/08 11:07:42;;;;;;;4.70;0.95;;;;;;;;;;5109122;28;20032;-56
2021/09/08 11:10:11;;;;;;;9.57;1.10;;;;;;;;;;5106809;28;20063;-56
2021/09/08 11:12:46;;;;;;;6.10;1.10;;;;;;;;;;5107439;28;20034;-56
2021/09/08 11:15:15;;;;;;;9.00;1.23;;;;;;;;;;5109588;28;20818;-56
2021/09/08 11:17:43;;;;;;;6.05;0.80;;;;;;;;;;5108680;28;20035;-56
2021/09/08 11:20:24;;;;;;;5.62;0.62;;;;;;;;;;5109410;28;20013;-56
2021/09/08 11:23:24;;;;;;;3.03;0.77;;;;;;;;;;5108928;28;20060;-56
2021/09/08 11:25:53;;;;;;;3.20;0.80;;;;;;;;;;5086766;28;20044;-56
2021/09/08 11:28:21;;;;;;;3.15;0.88;;;;;;;;;;5108727;28;20019;-55
2021/09/08 11:30:50;;;;;;;3.95;1.10;;;;;;;;;;5109463;28;20021;-55
2021/09/08 11:33:18;;;;;;;7.72;1.15;;;;;;;;;;5107425;28;20048;-55
2021/09/08 11:35:47;;;;;;;3.83;0.90;;;;;;;;;;5108226;28;20477;-56
2021/09/08 11:38:23;;;;;;;3.70;0.70;;;;;;;;;;5109820;28;20060;-55
2021/09/08 11:40:51;;;;;;;7.15;1.40;;;;;;;;;;5109677;28;20013;-55
2021/09/08 11:43:30;;;;;;;6.10;1.37;;;;;;;;;;5110195;28;20035;-56
2021/09/08 11:46:08;;;;;;;4.25;0.80;;;;;;;;;;5109410;28;20016;-54
2021/09/08 11:48:37;;;;;;;5.15;0.93;;;;;;;;;;5108659;28;20008;-55
2021/09/08 11:51:06;;;;;;;3.53;0.90;;;;;;;;;;5109879;28;20059;-55
2021/09/08 11:53:35;;;;;;;3.33;0.90;;;;;;;;;;5108068;28;20609;-55
2021/09/08 11:56:09;;;;;;;6.10;0.93;;;;;;;;;;5110367;28;20072;-56
2021/09/08 11:58:39;;;;;;;5.18;1.05;;;;;;;;;;5110165;28;20602;-55
2021/09/08 12:01:08;;;;;;;5.80;0.90;;;;;;;;;;5107589;28;20481;-56
2021/09/08 12:03:42;;;;;;;2.33;0.75;;;;;;;;;;5110222;28;20052;-55
2021/09/08 12:06:21;;;;;;;3.47;1.05;;;;;;;;;;5110545;28;20576;-55
2021/09/08 12:08:59;;;;;;;6.00;1.20;;;;;;;;;;5109419;28;20431;-55
2021/09/08 12:11:30;;;;;;;4.35;1.10;;;;;;;;;;5109422;28;20020;-56
2021/09/08 12:14:17;;;;;;;5.20;1.12;;;;;;;;;;5109600;28;20382;-55
2021/09/08 12:16:46;;;;;;;3.55;1.08;;;;;;;;;;5109859;28;20040;-56
2021/09/08 12:19:17;;;;;;;3.92;1.05;;;;;;;;;;5110039;28;20035;-55
2021/09/08 12:21:45;;;;;;;4.72;1.02;;;;;;;;;;5109872;28;20056;-55
2021/09/08 12:24:24;;;;;;;7.18;1.20;;;;;;;;;;5109548;28;20043;-55
2021/09/08 12:26:53;;;;;;;3.80;0.80;;;;;;;;;;5110481;28;20023;-55
2021/09/08 12:29:22;;;;;;;5.45;0.90;;;;;;;;;;5110122;28;20028;-55
2021/09/08 12:31:52;;;;;;;5.82;1.00;;;;;;;;;;5108048;28;20672;-55
2021/09/08 12:34:22;;;;;;;4.25;0.85;;;;;;;;;;5109831;28;20036;-55
2021/09/08 12:36:51;;;;;;;6.60;1.17;;;;;;;;;;5108512;28;20378;-55
2021/09/08 12:39:23;;;;;;;4.85;0.65;;;;;;;;;;5110123;28;20039;-56
2021/09/08 12:41:56;;;;;;;4.57;1.00;;;;;;;;;;5108992;28;20020;-55
2021/09/08 12:44:38;;;;;;;5.30;1.30;;;;;;;;;;5110076;28;20005;-55
2021/09/08 12:47:08;;;;;;;4.50;0.70;;;;;;;;;;5109461;28;20052;-55
2021/09/08 12:49:36;;;;;;;5.75;1.00;;;;;;;;;;5110142;28;20082;-55
2021/09/08 12:52:06;;;;;;;4.40;0.82;;;;;;;;;;5107767;28;20042;-55
2021/09/08 12:54:35;;;;;;;3.28;0.90;;;;;;;;;;5108164;28;20386;-55
2021/09/08 12:57:04;;;;;;;5.57;1.17;;;;;;;;;;5107512;28;20068;-55
2021/09/08 12:59:34;;;;;;;4.72;0.93;;;;;;;;;;5110055;28;20051;-55
2021/09/08 13:02:07;;;;;;;3.95;1.17;;;;;;;;;;5108167;28;20409;-55
2021/09/08 13:04:36;;;;;;;7.35;1.10;;;;;;;;;;5110244;28;20465;-55
2021/09/08 13:07:05;;;;;;;6.37;0.90;;;;;;;;;;5109079;28;20029;-55
2021/09/08 13:09:34;;;;;;;4.78;1.20;;;;;;;;;;5110006;28;20084;-55
2021/09/08 13:12:03;;;;;;;6.93;1.00;;;;;;;;;;5110252;28;20314;-55
2021/09/08 13:14:32;;;;;;;6.72;1.10;;;;;;;;;;5107528;28;20787;-55
2021/09/08 13:17:01;;;;;;;4.78;0.88;;;;;;;;;;5109432;28;20060;-55
2021/09/08 13:19:29;;;;;;;7.60;1.27;;;;;;;;;;5107881;28;20440;-55
2021/09/08 13:21:58;;;;;;;6.22;1.20;;;;;;;;;;5108257;28;20028;-55
2021/09/08 13:24:28;;;;;;;5.97;1.45;;;;;;;;;;5106644;28;20065;-55
2021/09/08 13:26:56;;;;;;;5.12;0.90;;;;;;;;;;5108785;28;20071;-55
2021/09/08 13:29:25;;;;;;;4.80;0.88;;;;;;;;;;5107542;28;20079;-55
2021/09/08 13:31:53;;;;;;;4.28;1.10;;;;;;;;;;5109321;28;20063;-55
2021/09/08 13:34:23;;;;;;;6.10;1.20;;;;;;;;;;5109497;28;20028;-55
2021/09/08 13:36:52;;;;;;;7.43;0.90;;;;;;;;;;5091016;28;20033;-55
2021/09/08 13:39:24;;;;;;;7.95;1.00;;;;;;;;;;5109580;28;20428;-55
2021/09/08 13:41:52;;;;;;;6.25;1.02;;;;;;;;;;5107933;28;20032;-55
2021/09/08 13:44:21;;;;;;;6.00;1.10;;;;;;;;;;5109822;28;20038;-55
2021/09/08 13:46:49;;;;;;;5.57;1.10;;;;;;;;;;5108308;28;20039;-55
2021/09/08 13:49:18;;;;;;;3.45;0.65;;;;;;;;;;5109358;28;20059;-55
2021/09/08 13:51:46;;;;;;;7.68;1.20;;;;;;;;;;5109101;28;20531;-55
2021/09/08 13:54:14;;;;;;;17.40;1.50;;;;;;;;;;5110394;28;20617;-55
2021/09/08 13:56:43;;;;;;;9.77;1.23;;;;;;;;;;5110808;28;20050;-55
2021/09/08 13:59:11;;;;;;;4.30;0.85;;;;;;;;;;5110380;28;20028;-55
2021/09/08 14:01:39;;;;;;;5.93;0.95;;;;;;;;;;5110008;28;20032;-55
2021/09/08 14:04:08;;;;;;;2.20;0.65;;;;;;;;;;5109428;28;20028;-55
2021/09/08 14:06:37;;;;;;;5.65;0.90;;;;;;;;;;5110289;28;20445;-55
2021/09/08 14:09:05;;;;;;;6.97;1.27;;;;;;;;;;5110762;28;20047;-55
2021/09/08 14:11:34;;;;;;;6.35;0.98;;;;;;;;;;5110670;28;20343;-55
2021/09/08 14:14:09;;;;;;;6.30;1.00;;;;;;;;;;5109362;28;20470;-55
2021/09/08 14:16:37;;;;;;;5.72;1.02;;;;;;;;;;5109774;28;20032;-55
2021/09/08 14:19:06;;;;;;;6.18;1.12;;;;;;;;;;5109914;28;20044;-55
2021/09/08 14:21:34;;;;;;;6.62;1.10;;;;;;;;;;5108285;28;20060;-55
2021/09/08 14:24:03;;;;;;;9.68;1.58;;;;;;;;;;5109756;28;20024;-55
2021/09/08 14:26:31;;;;;;;3.58;0.80;;;;;;;;;;5109425;28;20024;-55